Time;durP1;ratioP1;P1;durP2;ratioP2;P2;SDS_P1;SDS_P2;PMS_P1;PMS_P2;Temp;Humidity;BMP_temperature;BMP_pressure;BME280_temperature;BME280_humidity;BME280_pressure;Samples;Min_cycle;Max_cycle;Signal;HPM_P1;HPM_P2
2022/07/16 00:02:13;;;;;;;9.50;1.45;;;;;;;;;;5137460;27;20201;-61
2022/07/16 00:04:40;;;;;;;2.53;1.48;;;;;;;;;;5137364;27;20205;-61
2022/07/16 00:07:07;;;;;;;3.67;1.40;;;;;;;;;;5137581;27;20197;-63
2022/07/16 00:09:35;;;;;;;11.07;1.92;;;;;;;;;;5137219;27;20204;-61
2022/07/16 00:12:02;;;;;;;4.13;1.25;;;;;;;;;;5137302;27;20221;-62
2022/07/16 00:14:29;;;;;;;3.45;1.42;;;;;;;;;;5137784;27;20207;-62
2022/07/16 00:16:56;;;;;;;5.53;1.42;;;;;;;;;;5137132;27;20224;-61
2022/07/16 00:19:23;;;;;;;5.57;1.40;;;;;;;;;;5137010;27;20198;-61
2022/07/16 00:21:53;;;;;;;6.75;1.77;;;;;;;;;;5136724;27;20239;-60
2022/07/16 00:24:20;;;;;;;4.32;1.35;;;;;;;;;;5135879;27;20698;-61
2022/07/16 00:26:47;;;;;;;2.58;1.20;;;;;;;;;;5136725;27;20194;-61
2022/07/16 00:29:17;;;;;;;4.13;1.48;;;;;;;;;;5136910;27;20197;-61
2022/07/16 00:31:47;;;;;;;3.08;1.40;;;;;;;;;;5137013;27;20225;-61
2022/07/16 00:34:15;;;;;;;4.38;1.63;;;;;;;;;;5136926;27;20201;-61
2022/07/16 00:36:42;;;;;;;7.53;1.40;;;;;;;;;;5136638;27;20193;-61
2022/07/16 00:39:10;;;;;;;8.85;1.58;;;;;;;;;;5136610;27;20634;-61
2022/07/16 00:41:39;;;;;;;3.45;1.63;;;;;;;;;;5136746;27;20653;-61
2022/07/16 00:44:09;;;;;;;4.90;1.40;;;;;;;;;;5136614;27;20228;-61
2022/07/16 00:46:37;;;;;;;7.35;1.50;;;;;;;;;;5136698;27;20201;-61
2022/07/16 00:49:04;;;;;;;5.68;1.38;;;;;;;;;;5136477;27;20202;-61
2022/07/16 00:51:32;;;;;;;3.83;1.38;;;;;;;;;;5136507;27;20238;-62
2022/07/16 00:53:59;;;;;;;3.05;1.38;;;;;;;;;;5136588;27;20280;-62
2022/07/16 00:56:26;;;;;;;4.28;1.67;;;;;;;;;;5136812;27;20217;-61
2022/07/16 00:58:54;;;;;;;7.32;1.38;;;;;;;;;;5136357;27;20288;-63
2022/07/16 01:01:22;;;;;;;4.05;1.20;;;;;;;;;;5136574;27;20197;-60
2022/07/16 01:03:49;;;;;;;2.83;1.30;;;;;;;;;;5136442;27;20204;-62
2022/07/16 01:06:17;;;;;;;7.45;1.70;;;;;;;;;;5136604;27;20583;-61
2022/07/16 01:08:46;;;;;;;5.28;1.58;;;;;;;;;;5134560;27;20250;-61
2022/07/16 01:11:15;;;;;;;5.18;1.58;;;;;;;;;;5123836;27;20221;-61
2022/07/16 01:13:44;;;;;;;6.40;1.70;;;;;;;;;;5115464;28;20212;-61
2022/07/16 01:16:12;;;;;;;9.65;1.65;;;;;;;;;;5115567;28;20206;-61
2022/07/16 01:18:41;;;;;;;9.23;2.00;;;;;;;;;;5114979;28;20202;-60
2022/07/16 01:21:11;;;;;;;4.40;1.60;;;;;;;;;;5114345;28;20198;-60
2022/07/16 01:23:39;;;;;;;5.47;1.40;;;;;;;;;;5114808;28;20248;-61
2022/07/16 01:26:07;;;;;;;5.60;1.52;;;;;;;;;;5131191;27;20292;-61
2022/07/16 01:28:33;;;;;;;2.05;1.55;;;;;;;;;;5136964;27;20201;-61
2022/07/16 01:31:01;;;;;;;6.03;1.73;;;;;;;;;;5135952;27;20286;-61
2022/07/16 01:33:33;;;;;;;7.18;1.75;;;;;;;;;;5135763;28;20210;-61
2022/07/16 01:36:06;;;;;;;2.72;1.45;;;;;;;;;;5135502;27;20182;-61
2022/07/16 01:38:36;;;;;;;6.00;1.70;;;;;;;;;;5135702;27;20622;-62
2022/07/16 01:41:03;;;;;;;3.55;1.67;;;;;;;;;;5135639;28;20198;-60
2022/07/16 01:43:31;;;;;;;4.63;1.63;;;;;;;;;;5135487;28;20201;-60
2022/07/16 01:45:58;;;;;;;8.13;1.60;;;;;;;;;;5134550;28;20214;-61
2022/07/16 01:48:26;;;;;;;2.90;1.55;;;;;;;;;;5135482;28;20234;-61
2022/07/16 01:50:54;;;;;;;8.55;1.80;;;;;;;;;;5135331;28;20942;-61
2022/07/16 01:53:22;;;;;;;7.68;1.40;;;;;;;;;;5135449;28;20200;-60
2022/07/16 01:55:49;;;;;;;5.78;1.80;;;;;;;;;;5135673;28;20208;-61
2022/07/16 01:58:16;;;;;;;3.15;1.45;;;;;;;;;;5135646;28;20193;-61
2022/07/16 02:00:45;;;;;;;3.08;1.60;;;;;;;;;;5117626;28;20216;-61
2022/07/16 02:03:13;;;;;;;5.55;1.63;;;;;;;;;;5135146;28;20513;-60
2022/07/16 02:05:41;;;;;;;4.00;1.77;;;;;;;;;;5117697;28;20199;-62
2022/07/16 02:08:09;;;;;;;9.38;1.40;;;;;;;;;;5135338;28;20213;-61
2022/07/16 02:10:37;;;;;;;4.45;1.60;;;;;;;;;;5135117;28;20205;-61
2022/07/16 02:13:04;;;;;;;3.47;1.80;;;;;;;;;;5135100;28;20687;-61
2022/07/16 02:15:32;;;;;;;2.95;1.67;;;;;;;;;;5135415;28;20198;-62
2022/07/16 02:17:59;;;;;;;4.65;1.75;;;;;;;;;;5135051;28;20214;-61
2022/07/16 02:20:26;;;;;;;4.15;1.80;;;;;;;;;;5135054;28;20217;-61
2022/07/16 02:22:55;;;;;;;4.53;1.90;;;;;;;;;;5135000;28;20229;-61
2022/07/16 02:25:22;;;;;;;6.72;1.60;;;;;;;;;;5117477;28;20285;-62
2022/07/16 02:28:07;;;;;;;5.60;1.95;;;;;;;;;;5134961;28;20201;-62
2022/07/16 02:30:43;;;;;;;4.15;1.75;;;;;;;;;;5134984;28;20622;-61
2022/07/16 02:33:13;;;;;;;6.13;2.10;;;;;;;;;;5134915;28;20208;-60
2022/07/16 02:35:41;;;;;;;5.68;2.30;;;;;;;;;;5117601;28;20209;-61
2022/07/16 02:38:09;;;;;;;6.88;2.67;;;;;;;;;;5135162;28;20539;-62
2022/07/16 02:40:36;;;;;;;7.68;1.80;;;;;;;;;;5134864;28;20265;-60
2022/07/16 02:43:05;;;;;;;4.93;2.22;;;;;;;;;;5134835;28;20193;-60
2022/07/16 02:45:34;;;;;;;7.07;1.85;;;;;;;;;;5134816;28;20201;-60
2022/07/16 02:48:01;;;;;;;6.65;2.22;;;;;;;;;;5137032;27;20197;-62
2022/07/16 02:50:28;;;;;;;4.55;2.03;;;;;;;;;;5138480;27;20694;-62
2022/07/16 02:52:56;;;;;;;5.40;2.20;;;;;;;;;;5138568;27;20683;-61
2022/07/16 02:55:23;;;;;;;6.97;2.55;;;;;;;;;;5139051;27;20205;-61
2022/07/16 02:57:50;;;;;;;7.25;2.90;;;;;;;;;;5138635;27;20236;-61
2022/07/16 03:00:17;;;;;;;9.75;2.63;;;;;;;;;;5138688;27;20201;-61
2022/07/16 03:02:45;;;;;;;9.15;2.88;;;;;;;;;;5138886;27;20278;-61
2022/07/16 03:05:13;;;;;;;7.53;2.50;;;;;;;;;;5138437;27;20258;-61
2022/07/16 03:07:40;;;;;;;4.38;2.47;;;;;;;;;;5138628;27;20217;-62
2022/07/16 03:10:08;;;;;;;9.38;3.05;;;;;;;;;;5138596;27;20201;-60
2022/07/16 03:12:36;;;;;;;5.88;2.50;;;;;;;;;;5138470;27;20229;-61
2022/07/16 03:15:04;;;;;;;7.55;2.40;;;;;;;;;;5138367;27;20208;-61
2022/07/16 03:17:31;;;;;;;6.10;2.80;;;;;;;;;;5138452;27;20209;-61
2022/07/16 03:19:58;;;;;;;8.77;2.88;;;;;;;;;;5138669;27;20205;-61
2022/07/16 03:22:25;;;;;;;6.32;2.95;;;;;;;;;;5138379;27;20325;-62
2022/07/16 03:24:52;;;;;;;6.47;2.83;;;;;;;;;;5138561;27;20205;-61
2022/07/16 03:27:19;;;;;;;9.63;3.03;;;;;;;;;;5137893;27;20196;-62
2022/07/16 03:29:47;;;;;;;6.55;3.30;;;;;;;;;;5138405;27;20198;-61
2022/07/16 03:32:14;;;;;;;8.45;3.22;;;;;;;;;;5138007;27;20278;-61
2022/07/16 03:34:41;;;;;;;7.72;3.08;;;;;;;;;;5137159;27;20220;-62
2022/07/16 03:37:09;;;;;;;9.43;3.17;;;;;;;;;;5136210;27;20201;-61
2022/07/16 03:39:36;;;;;;;6.60;3.50;;;;;;;;;;5138281;27;20201;-61
2022/07/16 03:42:03;;;;;;;6.65;3.40;;;;;;;;;;5138004;27;20205;-62
2022/07/16 03:44:30;;;;;;;7.57;3.05;;;;;;;;;;5138130;27;20216;-62
2022/07/16 03:46:57;;;;;;;5.80;3.33;;;;;;;;;;5137797;27;20235;-60
2022/07/16 03:49:24;;;;;;;9.68;3.90;;;;;;;;;;5137765;27;20208;-61
2022/07/16 03:51:51;;;;;;;5.55;2.97;;;;;;;;;;5137788;27;20221;-61
2022/07/16 03:54:18;;;;;;;7.18;3.25;;;;;;;;;;5137630;27;20235;-61
2022/07/16 03:56:45;;;;;;;5.80;3.15;;;;;;;;;;5137652;27;20197;-61
2022/07/16 03:59:12;;;;;;;4.82;2.85;;;;;;;;;;5137487;27;20197;-62
2022/07/16 04:01:39;;;;;;;8.77;3.40;;;;;;;;;;5137238;27;20215;-62
2022/07/16 04:04:06;;;;;;;12.63;2.72;;;;;;;;;;5137549;27;20530;-61
2022/07/16 04:06:33;;;;;;;5.82;2.92;;;;;;;;;;5137382;27;20685;-62
2022/07/16 04:09:00;;;;;;;6.43;2.70;;;;;;;;;;5137392;27;20216;-61
2022/07/16 04:11:28;;;;;;;5.38;2.83;;;;;;;;;;5137504;27;20229;-62
2022/07/16 04:13:55;;;;;;;5.22;2.00;;;;;;;;;;5137327;27;20555;-63
2022/07/16 04:16:22;;;;;;;6.78;2.60;;;;;;;;;;5136917;27;20265;-61
2022/07/16 04:18:50;;;;;;;6.20;2.50;;;;;;;;;;5137202;27;20218;-62
2022/07/16 04:21:17;;;;;;;7.05;2.53;;;;;;;;;;5136957;27;20212;-62
2022/07/16 04:23:44;;;;;;;7.97;2.58;;;;;;;;;;5137588;27;20236;-62
2022/07/16 04:26:11;;;;;;;6.05;2.08;;;;;;;;;;5137754;27;20216;-62
2022/07/16 04:28:38;;;;;;;6.20;2.20;;;;;;;;;;5136985;27;20208;-61
2022/07/16 04:31:04;;;;;;;4.35;2.08;;;;;;;;;;5136858;27;20201;-61
2022/07/16 04:33:32;;;;;;;4.75;2.33;;;;;;;;;;5136914;27;20197;-62
2022/07/16 04:35:59;;;;;;;6.55;2.10;;;;;;;;;;5127606;27;20525;-63
2022/07/16 04:38:26;;;;;;;4.13;2.22;;;;;;;;;;5134420;27;20413;-63
2022/07/16 04:40:53;;;;;;;5.55;2.45;;;;;;;;;;5132316;27;20204;-62
2022/07/16 04:43:20;;;;;;;5.32;2.30;;;;;;;;;;5133845;27;20205;-62
2022/07/16 04:45:47;;;;;;;7.05;2.15;;;;;;;;;;5135486;27;20629;-61
2022/07/16 04:48:14;;;;;;;6.72;2.40;;;;;;;;;;5135397;27;20197;-63
2022/07/16 04:50:41;;;;;;;3.20;1.92;;;;;;;;;;5132532;27;20618;-62
2022/07/16 04:53:08;;;;;;;4.70;2.45;;;;;;;;;;5134762;27;20224;-63
2022/07/16 04:55:36;;;;;;;7.47;2.53;;;;;;;;;;5135237;27;20201;-62
2022/07/16 04:58:03;;;;;;;6.57;2.35;;;;;;;;;;5135240;27;20251;-62
2022/07/16 05:00:30;;;;;;;6.30;2.60;;;;;;;;;;5134792;27;20197;-62
2022/07/16 05:02:57;;;;;;;5.45;2.78;;;;;;;;;;5128890;27;20221;-62
2022/07/16 05:05:26;;;;;;;5.70;2.83;;;;;;;;;;5134522;27;20220;-62
2022/07/16 05:07:54;;;;;;;9.90;2.90;;;;;;;;;;5131509;27;20213;-62
2022/07/16 05:10:21;;;;;;;8.93;2.85;;;;;;;;;;5133420;27;20547;-63
2022/07/16 05:12:48;;;;;;;6.15;2.75;;;;;;;;;;5133849;27;20256;-62
2022/07/16 05:15:15;;;;;;;5.78;2.25;;;;;;;;;;5128689;27;20224;-62
2022/07/16 05:17:42;;;;;;;7.00;2.47;;;;;;;;;;5117236;27;20674;-62
2022/07/16 05:20:10;;;;;;;8.65;2.42;;;;;;;;;;5114750;28;20696;-62
2022/07/16 05:22:37;;;;;;;4.75;2.28;;;;;;;;;;5114484;28;20321;-60
2022/07/16 05:25:06;;;;;;;5.25;2.03;;;;;;;;;;5097110;28;20218;-62
2022/07/16 05:27:33;;;;;;;4.50;2.22;;;;;;;;;;5114691;28;20225;-62
2022/07/16 05:30:01;;;;;;;5.85;2.35;;;;;;;;;;5115010;28;20214;-61
2022/07/16 05:32:28;;;;;;;4.63;2.25;;;;;;;;;;5114472;28;20244;-63
2022/07/16 05:34:55;;;;;;;7.60;2.42;;;;;;;;;;5114631;28;20221;-64
2022/07/16 05:37:22;;;;;;;5.93;2.08;;;;;;;;;;5114577;28;20222;-63
2022/07/16 05:39:49;;;;;;;7.97;2.20;;;;;;;;;;5114827;28;20274;-62
2022/07/16 05:42:16;;;;;;;4.85;2.17;;;;;;;;;;5134360;28;20584;-62
2022/07/16 05:44:43;;;;;;;5.63;2.20;;;;;;;;;;5134775;28;20208;-62
2022/07/16 05:47:11;;;;;;;4.43;2.20;;;;;;;;;;5134054;28;20225;-62
2022/07/16 05:49:38;;;;;;;7.20;2.40;;;;;;;;;;5135056;28;20221;-62
2022/07/16 05:52:08;;;;;;;8.35;1.95;;;;;;;;;;5134889;28;20221;-60
2022/07/16 05:54:35;;;;;;;6.78;2.35;;;;;;;;;;5134817;28;20221;-61
2022/07/16 05:57:02;;;;;;;5.05;2.22;;;;;;;;;;5135003;28;20221;-60
2022/07/16 05:59:29;;;;;;;5.10;2.00;;;;;;;;;;5134808;28;20321;-61
2022/07/16 06:01:56;;;;;;;6.57;2.22;;;;;;;;;;5134668;28;20569;-61
2022/07/16 06:04:23;;;;;;;4.50;2.30;;;;;;;;;;5134729;28;20229;-60
2022/07/16 06:06:51;;;;;;;5.70;2.08;;;;;;;;;;5135174;28;20235;-61
2022/07/16 06:09:18;;;;;;;3.97;2.13;;;;;;;;;;5134466;28;20217;-61
2022/07/16 06:11:46;;;;;;;3.25;1.95;;;;;;;;;;5134796;28;20233;-62
2022/07/16 06:14:13;;;;;;;9.20;2.10;;;;;;;;;;5133230;28;20614;-60
2022/07/16 06:16:41;;;;;;;4.75;2.08;;;;;;;;;;5134512;28;20236;-62
2022/07/16 06:19:08;;;;;;;8.05;2.38;;;;;;;;;;5134152;28;20221;-62
2022/07/16 06:21:35;;;;;;;9.00;2.28;;;;;;;;;;5135085;27;20223;-61
2022/07/16 06:24:02;;;;;;;6.28;2.20;;;;;;;;;;5138232;27;20237;-60
2022/07/16 06:26:29;;;;;;;7.18;2.30;;;;;;;;;;5139435;27;20677;-62
2022/07/16 06:28:56;;;;;;;4.35;1.90;;;;;;;;;;5134764;27;20284;-62
2022/07/16 06:31:24;;;;;;;3.92;1.88;;;;;;;;;;5137673;27;20216;-62
2022/07/16 06:33:51;;;;;;;3.75;2.15;;;;;;;;;;5138332;27;20310;-63
2022/07/16 06:36:18;;;;;;;6.65;1.80;;;;;;;;;;5138936;27;20529;-62
2022/07/16 06:38:45;;;;;;;6.10;2.50;;;;;;;;;;5138402;27;20204;-63
2022/07/16 06:41:12;;;;;;;15.48;3.08;;;;;;;;;;5138646;27;20542;-63
2022/07/16 06:43:42;;;;;;;6.03;2.33;;;;;;;;;;5138512;27;20288;-63
2022/07/16 06:46:09;;;;;;;7.85;2.30;;;;;;;;;;5138621;27;20641;-63
2022/07/16 06:48:36;;;;;;;7.13;2.42;;;;;;;;;;5138470;27;20201;-63
2022/07/16 06:51:03;;;;;;;6.10;1.90;;;;;;;;;;5138506;27;20197;-62
2022/07/16 06:53:30;;;;;;;8.30;2.45;;;;;;;;;;5138343;27;20225;-63
2022/07/16 06:55:57;;;;;;;9.70;1.95;;;;;;;;;;5138203;27;20197;-62
2022/07/16 06:58:24;;;;;;;7.32;2.20;;;;;;;;;;5136404;27;20198;-62
2022/07/16 07:00:51;;;;;;;17.02;3.65;;;;;;;;;;5130739;27;20251;-63
2022/07/16 07:03:18;;;;;;;10.18;2.70;;;;;;;;;;5118301;28;20202;-64
2022/07/16 07:05:46;;;;;;;8.18;2.10;;;;;;;;;;5117972;28;20200;-63
2022/07/16 07:08:13;;;;;;;10.30;3.05;;;;;;;;;;5136535;27;20213;-63
2022/07/16 07:10:40;;;;;;;8.85;2.53;;;;;;;;;;5119623;27;20262;-62
2022/07/16 07:13:07;;;;;;;4.28;1.90;;;;;;;;;;5136961;27;20220;-63
2022/07/16 07:15:34;;;;;;;13.35;2.25;;;;;;;;;;5137815;27;20197;-62
2022/07/16 07:18:01;;;;;;;5.95;2.00;;;;;;;;;;5137803;27;20221;-61
2022/07/16 07:20:29;;;;;;;9.10;1.85;;;;;;;;;;5138301;27;20202;-58
2022/07/16 07:22:57;;;;;;;28.83;6.97;;;;;;;;;;5137617;27;20229;-58
2022/07/16 07:25:24;;;;;;;69.30;13.75;;;;;;;;;;5138128;27;20194;-59
2022/07/16 07:27:51;;;;;;;8.20;2.17;;;;;;;;;;5138064;27;20193;-58
2022/07/16 07:30:18;;;;;;;7.18;1.58;;;;;;;;;;5137813;27;20205;-58
2022/07/16 07:32:45;;;;;;;9.18;2.80;;;;;;;;;;5133666;27;20217;-58
2022/07/16 07:35:12;;;;;;;10.20;2.58;;;;;;;;;;5136598;27;20290;-57
2022/07/16 07:37:40;;;;;;;16.45;3.88;;;;;;;;;;5136435;27;20626;-58
2022/07/16 07:40:07;;;;;;;13.95;3.92;;;;;;;;;;5136733;27;20221;-61
2022/07/16 07:42:34;;;;;;;12.50;3.30;;;;;;;;;;5136462;27;20278;-61
2022/07/16 07:45:03;;;;;;;4.55;1.92;;;;;;;;;;5136441;27;20677;-63
2022/07/16 07:47:31;;;;;;;6.05;1.52;;;;;;;;;;5135958;27;20296;-61
2022/07/16 07:49:58;;;;;;;5.65;1.55;;;;;;;;;;5136685;27;20221;-61
2022/07/16 07:52:26;;;;;;;5.40;2.10;;;;;;;;;;5136128;27;20693;-62
2022/07/16 07:54:53;;;;;;;10.63;2.85;;;;;;;;;;5135618;27;20352;-52
2022/07/16 07:57:20;;;;;;;5.97;1.60;;;;;;;;;;5136914;27;20225;-50
2022/07/16 07:59:47;;;;;;;5.13;1.70;;;;;;;;;;5136487;27;20225;-52
2022/07/16 08:02:14;;;;;;;5.95;1.15;;;;;;;;;;5136364;27;20233;-56
2022/07/16 08:04:42;;;;;;;3.55;1.38;;;;;;;;;;5118978;27;20225;-57
2022/07/16 08:07:09;;;;;;;3.05;1.23;;;;;;;;;;5136242;27;20686;-57
2022/07/16 08:09:36;;;;;;;6.30;1.23;;;;;;;;;;5136427;27;20229;-58
2022/07/16 08:12:03;;;;;;;4.50;1.30;;;;;;;;;;5136191;27;20308;-59
2022/07/16 08:14:30;;;;;;;6.18;1.20;;;;;;;;;;5136380;27;20244;-59
2022/07/16 08:16:58;;;;;;;3.00;1.30;;;;;;;;;;5135583;27;20221;-58
2022/07/16 08:19:25;;;;;;;3.50;1.30;;;;;;;;;;5136501;27;20560;-58
2022/07/16 08:21:53;;;;;;;4.55;1.10;;;;;;;;;;5136440;27;20236;-59
2022/07/16 08:27:06;;;;;;;4.38;1.30;;;;;;;;;;5135959;27;20243;-59
2022/07/16 08:29:33;;;;;;;4.40;1.17;;;;;;;;;;5135914;27;20228;-59
2022/07/16 08:32:01;;;;;;;4.45;1.20;;;;;;;;;;5126930;27;20218;-58
2022/07/16 08:34:28;;;;;;;11.35;1.40;;;;;;;;;;5126256;27;20237;-63
2022/07/16 08:36:55;;;;;;;3.38;0.88;;;;;;;;;;5136022;27;20221;-61
2022/07/16 08:39:22;;;;;;;3.17;1.23;;;;;;;;;;5129589;27;20375;-63
2022/07/16 08:41:50;;;;;;;2.72;1.10;;;;;;;;;;5115578;28;20237;-63
2022/07/16 08:44:17;;;;;;;6.20;1.33;;;;;;;;;;5114788;28;20222;-63
2022/07/16 08:46:44;;;;;;;6.15;1.42;;;;;;;;;;5114940;28;20222;-62
2022/07/16 08:49:11;;;;;;;4.07;0.90;;;;;;;;;;5100279;27;20240;-61
2022/07/16 08:51:39;;;;;;;2.95;1.05;;;;;;;;;;5135485;27;20217;-62
2022/07/16 08:54:11;;;;;;;4.55;1.20;;;;;;;;;;5135312;27;20708;-62
2022/07/16 08:56:38;;;;;;;11.98;2.30;;;;;;;;;;5117911;27;20217;-62
2022/07/16 08:59:06;;;;;;;11.30;1.70;;;;;;;;;;5117706;27;20321;-62
2022/07/16 09:01:33;;;;;;;1.58;0.80;;;;;;;;;;5135434;27;20217;-62
2022/07/16 09:04:01;;;;;;;1.92;0.95;;;;;;;;;;5135033;27;20225;-62
2022/07/16 09:06:28;;;;;;;4.90;1.30;;;;;;;;;;5135448;27;20247;-62
2022/07/16 09:08:56;;;;;;;4.15;0.90;;;;;;;;;;5135721;27;20308;-59
2022/07/16 09:11:30;;;;;;;9.23;1.33;;;;;;;;;;5135768;27;20337;-60
2022/07/16 09:14:08;;;;;;;11.90;1.35;;;;;;;;;;5135530;27;20224;-58
2022/07/16 09:16:41;;;;;;;3.70;1.02;;;;;;;;;;5135569;27;20729;-58
2022/07/16 09:19:12;;;;;;;5.38;1.08;;;;;;;;;;5134879;27;20228;-60
2022/07/16 09:22:18;;;;;;;5.75;1.23;;;;;;;;;;5135383;27;20221;-59
2022/07/16 09:24:52;;;;;;;4.20;1.35;;;;;;;;;;5031565;28;20289;-59
2022/07/16 09:27:25;;;;;;;4.20;1.33;;;;;;;;;;5032515;28;20236;-58
2022/07/16 09:30:02;;;;;;;2.55;0.95;;;;;;;;;;5032112;28;20234;-57
2022/07/16 09:32:30;;;;;;;6.35;1.05;;;;;;;;;;5032070;28;20224;-58
2022/07/16 09:35:04;;;;;;;9.18;1.10;;;;;;;;;;5031056;28;20315;-58
2022/07/16 09:37:44;;;;;;;4.03;1.00;;;;;;;;;;5031945;28;20208;-59
2022/07/16 09:40:12;;;;;;;6.70;0.70;;;;;;;;;;5027751;28;20264;-57
2022/07/16 09:42:40;;;;;;;2.92;1.13;;;;;;;;;;5012730;28;20225;-58
2022/07/16 09:45:08;;;;;;;4.95;0.90;;;;;;;;;;5031565;28;20236;-61
2022/07/16 09:47:36;;;;;;;3.38;1.20;;;;;;;;;;5015353;28;20709;-56
2022/07/16 09:50:04;;;;;;;2.97;1.10;;;;;;;;;;5031563;28;20224;-60
2022/07/16 09:52:34;;;;;;;2.70;1.00;;;;;;;;;;5032318;28;20256;-50
2022/07/16 09:55:02;;;;;;;2.92;0.93;;;;;;;;;;5059011;27;20293;-45
2022/07/16 09:57:30;;;;;;;4.45;0.90;;;;;;;;;;5138541;27;20229;-47
2022/07/16 09:59:58;;;;;;;8.18;1.10;;;;;;;;;;5138725;27;20225;-45
2022/07/16 10:02:38;;;;;;;7.68;1.15;;;;;;;;;;5139476;27;20277;-43
2022/07/16 10:05:05;;;;;;;4.35;0.95;;;;;;;;;;5138822;27;20217;-44
2022/07/16 10:07:33;;;;;;;4.57;1.15;;;;;;;;;;5139399;27;20291;-43
2022/07/16 10:10:01;;;;;;;18.92;1.65;;;;;;;;;;5139787;27;20216;-43
2022/07/16 10:12:29;;;;;;;3.58;0.85;;;;;;;;;;5139658;27;20205;-44
2022/07/16 10:14:58;;;;;;;5.55;1.13;;;;;;;;;;5139608;27;20225;-45
2022/07/16 10:17:34;;;;;;;5.50;1.58;;;;;;;;;;5139616;27;20204;-44
2022/07/16 10:20:12;;;;;;;6.50;1.00;;;;;;;;;;5139358;27;20201;-44
2022/07/16 10:22:41;;;;;;;4.45;1.45;;;;;;;;;;5139576;27;20232;-45
2022/07/16 10:25:14;;;;;;;5.30;1.83;;;;;;;;;;5139616;27;20193;-44
2022/07/16 10:28:02;;;;;;;4.72;0.90;;;;;;;;;;5139430;27;20209;-46
2022/07/16 10:30:32;;;;;;;2.67;0.95;;;;;;;;;;5137627;27;20201;-46
2022/07/16 10:33:02;;;;;;;7.43;0.82;;;;;;;;;;5124397;27;20198;-45
2022/07/16 10:35:33;;;;;;;2.95;0.95;;;;;;;;;;5115918;28;20201;-43
2022/07/16 10:38:20;;;;;;;5.55;0.75;;;;;;;;;;5116136;28;20297;-44
2022/07/16 10:41:15;;;;;;;4.15;0.90;;;;;;;;;;5117459;28;20657;-44
2022/07/16 10:44:09;;;;;;;5.10;0.70;;;;;;;;;;5121184;27;20197;-44
2022/07/16 10:46:50;;;;;;;8.52;1.40;;;;;;;;;;5122738;27;20205;-43
2022/07/16 10:49:17;;;;;;;12.00;5.07;;;;;;;;;;5138741;27;20197;-46
2022/07/16 10:52:01;;;;;;;5.35;0.90;;;;;;;;;;5127360;27;20197;-46
2022/07/16 10:54:39;;;;;;;1.67;0.90;;;;;;;;;;5128788;27;20584;-49
2022/07/16 10:57:07;;;;;;;4.47;1.00;;;;;;;;;;5138981;27;20189;-47
2022/07/16 10:59:41;;;;;;;5.72;0.82;;;;;;;;;;5138451;27;20218;-48
2022/07/16 11:02:10;;;;;;;3.25;0.75;;;;;;;;;;5138385;27;20715;-47
2022/07/16 11:04:40;;;;;;;3.60;1.00;;;;;;;;;;5120913;27;20212;-48
2022/07/16 11:07:13;;;;;;;3.13;0.85;;;;;;;;;;5138422;27;20686;-46
2022/07/16 11:09:42;;;;;;;2.72;0.93;;;;;;;;;;5138496;27;20379;-49
2022/07/16 11:12:21;;;;;;;5.88;0.88;;;;;;;;;;5138500;27;20197;-46
2022/07/16 11:14:49;;;;;;;4.72;2.10;;;;;;;;;;5138469;27;20246;-48
2022/07/16 11:17:21;;;;;;;7.75;1.27;;;;;;;;;;5138744;27;20582;-47
2022/07/16 11:19:51;;;;;;;7.03;0.93;;;;;;;;;;5138525;27;20212;-47
2022/07/16 11:22:20;;;;;;;7.03;1.20;;;;;;;;;;5138408;27;20233;-49
2022/07/16 11:24:53;;;;;;;6.13;1.35;;;;;;;;;;5138363;27;20658;-47
2022/07/16 11:27:36;;;;;;;5.43;0.80;;;;;;;;;;5138797;27;20190;-50
2022/07/16 11:30:06;;;;;;;1.25;0.63;;;;;;;;;;5138577;27;20186;-46
2022/07/16 11:32:44;;;;;;;2.95;0.75;;;;;;;;;;5120577;27;20182;-46
2022/07/16 11:35:13;;;;;;;3.65;0.80;;;;;;;;;;5136229;27;20205;-48
2022/07/16 11:37:54;;;;;;;7.05;1.23;;;;;;;;;;5136116;27;20205;-49
2022/07/16 11:40:34;;;;;;;6.10;0.90;;;;;;;;;;5137075;27;20544;-47
2022/07/16 11:43:01;;;;;;;5.60;0.80;;;;;;;;;;5137917;27;20225;-46
2022/07/16 11:45:29;;;;;;;6.63;1.00;;;;;;;;;;5137905;27;20205;-45
2022/07/16 11:48:17;;;;;;;1.75;0.80;;;;;;;;;;5119763;27;20537;-48
2022/07/16 11:50:46;;;;;;;10.40;1.20;;;;;;;;;;5137147;27;20575;-46
2022/07/16 11:53:13;;;;;;;3.70;1.05;;;;;;;;;;5136117;27;20194;-47
2022/07/16 11:55:44;;;;;;;3.00;1.30;;;;;;;;;;5136344;27;20197;-47
2022/07/16 11:58:12;;;;;;;7.88;1.25;;;;;;;;;;5134044;27;20193;-45
2022/07/16 12:00:43;;;;;;;7.47;1.13;;;;;;;;;;5136362;27;20204;-45
2022/07/16 12:03:11;;;;;;;8.38;1.20;;;;;;;;;;5136802;27;20212;-45
2022/07/16 12:05:38;;;;;;;3.67;1.15;;;;;;;;;;5136495;27;20193;-49
2022/07/16 12:08:08;;;;;;;3.42;1.08;;;;;;;;;;5137139;27;20193;-47
2022/07/16 12:11:03;;;;;;;3.72;0.80;;;;;;;;;;5135751;27;20545;-47
2022/07/16 12:13:30;;;;;;;2.08;0.90;;;;;;;;;;5132464;27;20192;-43
2022/07/16 12:16:00;;;;;;;6.47;1.10;;;;;;;;;;5134066;27;20202;-45
2022/07/16 12:18:27;;;;;;;3.05;0.80;;;;;;;;;;5132851;27;20238;-45
2022/07/16 12:21:24;;;;;;;3.92;1.08;;;;;;;;;;5117808;27;20276;-50
2022/07/16 12:23:51;;;;;;;2.30;0.80;;;;;;;;;;5133865;27;20229;-49
2022/07/16 12:26:36;;;;;;;4.90;1.50;;;;;;;;;;5136713;27;20562;-47
2022/07/16 12:29:07;;;;;;;4.68;1.20;;;;;;;;;;5136252;27;20185;-47
2022/07/16 12:31:35;;;;;;;6.20;1.20;;;;;;;;;;5134455;27;20205;-48
2022/07/16 12:34:04;;;;;;;3.05;0.90;;;;;;;;;;5136522;27;20227;-46
2022/07/16 12:36:34;;;;;;;27.50;2.00;;;;;;;;;;5136099;27;20270;-49
2022/07/16 12:39:04;;;;;;;10.68;1.02;;;;;;;;;;5137249;27;20193;-48
2022/07/16 12:41:31;;;;;;;3.42;1.05;;;;;;;;;;5136691;27;20216;-49
2022/07/16 12:44:03;;;;;;;1.75;0.80;;;;;;;;;;5136347;27;20564;-46
2022/07/16 12:46:37;;;;;;;4.55;1.00;;;;;;;;;;5136547;27;20186;-45
2022/07/16 12:49:06;;;;;;;8.38;0.90;;;;;;;;;;5135685;27;20193;-46
2022/07/16 12:51:45;;;;;;;2.88;0.90;;;;;;;;;;5136112;27;20189;-47
2022/07/16 12:54:15;;;;;;;2.55;0.90;;;;;;;;;;5135892;27;20209;-46
2022/07/16 12:59:33;;;;;;;3.42;0.90;;;;;;;;;;5135167;27;20265;-48
2022/07/16 13:02:02;;;;;;;5.07;1.20;;;;;;;;;;5135328;27;20196;-44
2022/07/16 13:04:29;;;;;;;4.22;1.10;;;;;;;;;;5114134;27;20285;-45
2022/07/16 13:06:57;;;;;;;2.60;1.15;;;;;;;;;;5134931;27;20220;-43
2022/07/16 13:09:24;;;;;;;8.27;1.45;;;;;;;;;;5135238;27;20251;-43
2022/07/16 13:11:52;;;;;;;4.13;1.40;;;;;;;;;;5134284;27;20205;-44
2022/07/16 13:14:19;;;;;;;2.53;0.90;;;;;;;;;;5133749;27;20220;-43
2022/07/16 13:16:48;;;;;;;2.00;1.17;;;;;;;;;;5134733;27;20222;-45
2022/07/16 13:19:20;;;;;;;2.42;1.10;;;;;;;;;;5139308;27;20331;-43
2022/07/16 13:21:47;;;;;;;3.47;1.45;;;;;;;;;;5142863;27;20227;-44
2022/07/16 13:24:14;;;;;;;5.55;1.40;;;;;;;;;;5142672;27;20225;-45
2022/07/16 13:26:41;;;;;;;3.13;1.10;;;;;;;;;;5144308;27;20562;-43
2022/07/16 13:29:28;;;;;;;2.80;1.10;;;;;;;;;;5155800;27;20216;-42
2022/07/16 13:31:55;;;;;;;5.57;1.10;;;;;;;;;;5155499;27;20269;-42
2022/07/16 13:34:23;;;;;;;3.20;1.15;;;;;;;;;;5155492;27;20335;-42
2022/07/16 13:36:50;;;;;;;4.22;1.10;;;;;;;;;;5155498;27;20224;-43
2022/07/16 13:39:17;;;;;;;1.75;1.02;;;;;;;;;;5155757;27;20224;-42
2022/07/16 13:41:44;;;;;;;2.75;1.00;;;;;;;;;;5155903;27;20228;-42
2022/07/16 13:44:11;;;;;;;6.32;1.13;;;;;;;;;;5155805;27;20265;-42
2022/07/16 13:46:40;;;;;;;10.27;0.95;;;;;;;;;;5156092;27;20556;-42
2022/07/16 13:49:07;;;;;;;3.30;1.10;;;;;;;;;;5142821;27;20237;-42
2022/07/16 13:51:34;;;;;;;5.30;1.27;;;;;;;;;;5135409;28;20217;-42
2022/07/16 13:54:11;;;;;;;3.28;1.10;;;;;;;;;;5134718;28;20240;-42
2022/07/16 13:56:39;;;;;;;3.67;1.35;;;;;;;;;;5137081;27;20212;-44
2022/07/16 13:59:06;;;;;;;3.20;1.10;;;;;;;;;;5142406;27;20295;-43
2022/07/16 14:01:34;;;;;;;4.25;1.30;;;;;;;;;;5133648;28;20228;-44
2022/07/16 14:04:06;;;;;;;3.22;1.10;;;;;;;;;;5133326;28;20209;-43
2022/07/16 14:06:33;;;;;;;6.25;1.25;;;;;;;;;;5133997;28;20232;-44
2022/07/16 14:09:00;;;;;;;2.70;1.00;;;;;;;;;;5112808;28;20568;-46
2022/07/16 14:11:28;;;;;;;3.72;1.30;;;;;;;;;;5134142;28;20209;-44
2022/07/16 14:13:55;;;;;;;4.68;1.05;;;;;;;;;;5132976;28;20217;-43
2022/07/16 14:16:22;;;;;;;2.28;0.90;;;;;;;;;;5133662;28;20678;-44
2022/07/16 14:18:50;;;;;;;3.10;1.20;;;;;;;;;;5132893;28;20213;-42
2022/07/16 14:21:18;;;;;;;3.97;1.15;;;;;;;;;;5132812;28;20224;-42
2022/07/16 14:23:45;;;;;;;2.75;0.90;;;;;;;;;;5133709;28;20305;-42
2022/07/16 14:26:12;;;;;;;3.60;1.13;;;;;;;;;;5133852;28;20566;-42
2022/07/16 14:28:39;;;;;;;5.47;1.30;;;;;;;;;;5133278;28;20678;-43
2022/07/16 14:31:06;;;;;;;1.88;0.80;;;;;;;;;;5134662;28;20225;-43
2022/07/16 14:33:34;;;;;;;2.47;1.00;;;;;;;;;;5134648;28;20241;-43
2022/07/16 14:36:01;;;;;;;3.03;1.05;;;;;;;;;;5134550;28;20225;-44
2022/07/16 14:38:28;;;;;;;2.08;1.17;;;;;;;;;;5134938;28;20228;-42
2022/07/16 14:40:55;;;;;;;3.08;1.20;;;;;;;;;;5133744;27;20221;-42
2022/07/16 14:43:23;;;;;;;2.65;0.73;;;;;;;;;;5136132;27;20229;-43
2022/07/16 14:45:50;;;;;;;2.10;0.90;;;;;;;;;;5138450;27;20229;-43
2022/07/16 14:48:19;;;;;;;2.33;0.90;;;;;;;;;;5138189;27;20248;-42
2022/07/16 14:50:47;;;;;;;2.03;0.93;;;;;;;;;;5135899;27;20710;-43
2022/07/16 14:53:14;;;;;;;9.40;1.20;;;;;;;;;;5137412;27;20300;-51
2022/07/16 14:55:41;;;;;;;8.02;1.27;;;;;;;;;;5137940;27;20233;-45
2022/07/16 14:58:08;;;;;;;2.53;1.08;;;;;;;;;;5137790;27;20213;-48
2022/07/16 15:00:42;;;;;;;2.60;1.08;;;;;;;;;;5138042;27;20225;-47